createdAt,value
2018-06-25T00:00:59.056Z,100.00
2018-06-25T00:03:25.971Z,100.00
2018-06-25T00:05:52.884Z,100.00
2018-06-25T00:08:19.813Z,100.00
2018-06-25T00:10:46.724Z,100.00
2018-06-25T00:13:13.641Z,100.00
2018-06-25T00:15:40.545Z,100.00
2018-06-25T00:18:07.520Z,100.00
2018-06-25T00:20:34.475Z,100.00
2018-06-25T00:23:01.385Z,100.00
2018-06-25T00:25:28.317Z,100.00
2018-06-25T00:27:55.235Z,100.00
2018-06-25T00:30:22.181Z,100.00
2018-06-25T00:32:49.107Z,100.00
2018-06-25T00:35:16.033Z,100.00
2018-06-25T00:37:42.966Z,100.00
2018-06-25T00:40:09.896Z,100.00
2018-06-25T00:42:36.857Z,100.00
2018-06-25T00:45:03.809Z,100.00
2018-06-25T00:47:30.733Z,100.00
2018-06-25T00:49:57.652Z,100.00
2018-06-25T00:52:24.604Z,100.00
2018-06-25T00:54:51.523Z,100.00
2018-06-25T00:57:18.461Z,100.00
2018-06-25T00:59:51.377Z,100.00
2018-06-25T01:02:18.527Z,100.00
2018-06-25T01:04:45.487Z,100.00
2018-06-25T01:07:17.694Z,100.00
2018-06-25T01:09:44.620Z,100.00
2018-06-25T01:12:11.828Z,100.00
2018-06-25T01:14:38.793Z,100.00
2018-06-25T01:17:06.292Z,100.00
2018-06-25T01:19:33.212Z,100.00
2018-06-25T01:22:00.130Z,100.00
2018-06-25T01:24:27.194Z,100.00
2018-06-25T01:26:54.116Z,100.00
2018-06-25T01:29:21.046Z,100.00
2018-06-25T01:31:47.960Z,100.00
2018-06-25T01:34:14.881Z,100.00
2018-06-25T01:36:41.800Z,100.00
2018-06-25T01:39:09.797Z,100.00
2018-06-25T01:41:36.709Z,100.00
2018-06-25T01:44:03.653Z,100.00
2018-06-25T01:46:30.559Z,100.00
2018-06-25T01:48:57.485Z,100.00
2018-06-25T01:51:24.404Z,100.00
2018-06-25T01:53:51.330Z,100.00
2018-06-25T01:56:18.244Z,100.00
2018-06-25T01:58:45.180Z,100.00
2018-06-25T02:01:12.089Z,100.00
2018-06-25T02:03:38.994Z,100.00
2018-06-25T02:06:05.901Z,100.00
2018-06-25T02:08:32.838Z,100.00
2018-06-25T02:10:59.756Z,100.00
2018-06-25T02:13:26.683Z,100.00
2018-06-25T02:15:53.597Z,100.00
2018-06-25T02:18:20.539Z,100.00
2018-06-25T02:20:47.449Z,100.00
2018-06-25T02:23:14.350Z,100.00
2018-06-25T02:25:41.261Z,100.00
2018-06-25T02:28:08.190Z,100.00
2018-06-25T02:30:35.469Z,100.00
2018-06-25T02:33:02.490Z,100.00
2018-06-25T02:35:29.354Z,100.00
2018-06-25T02:37:56.268Z,100.00
2018-06-25T02:40:23.196Z,100.00
2018-06-25T02:42:50.124Z,100.00
2018-06-25T02:45:17.094Z,100.00
2018-06-25T02:47:43.997Z,100.00
2018-06-25T02:50:10.942Z,100.00
2018-06-25T02:52:37.857Z,100.00
2018-06-25T02:55:04.793Z,100.00
2018-06-25T02:57:31.721Z,100.00
2018-06-25T02:59:58.697Z,100.00
2018-06-25T03:02:25.615Z,100.00
2018-06-25T03:04:52.541Z,100.00
2018-06-25T03:07:19.469Z,100.00
2018-06-25T03:09:46.402Z,100.00
2018-06-25T03:12:13.331Z,100.00
2018-06-25T03:14:40.283Z,100.00
2018-06-25T03:17:07.233Z,100.00
2018-06-25T03:19:34.161Z,100.00
2018-06-25T03:22:01.105Z,100.00
2018-06-25T03:24:28.031Z,100.00
2018-06-25T03:26:54.953Z,100.00
2018-06-25T03:29:21.899Z,100.00
2018-06-25T03:31:48.840Z,100.00
2018-06-25T03:34:15.784Z,100.00
2018-06-25T03:36:42.716Z,100.00
2018-06-25T03:39:10.905Z,100.00
2018-06-25T03:41:37.849Z,100.00
2018-06-25T03:44:04.797Z,100.00
2018-06-25T03:46:31.742Z,100.00
2018-06-25T03:48:58.677Z,100.00
2018-06-25T03:51:25.633Z,100.00
2018-06-25T03:53:52.573Z,100.00
2018-06-25T03:56:19.524Z,100.00
2018-06-25T03:58:46.451Z,100.00
2018-06-25T04:01:13.402Z,100.00
2018-06-25T04:03:40.328Z,100.00
2018-06-25T04:06:07.281Z,100.00
2018-06-25T04:08:34.214Z,100.00
2018-06-25T04:11:01.166Z,100.00
2018-06-25T04:13:28.100Z,100.00
2018-06-25T04:15:55.025Z,100.00
2018-06-25T04:18:21.969Z,100.00
2018-06-25T04:20:49.010Z,100.00
2018-06-25T04:23:15.857Z,100.00
2018-06-25T04:25:42.830Z,100.00
2018-06-25T04:28:09.757Z,100.00
2018-06-25T04:30:36.712Z,100.00
2018-06-25T04:33:03.740Z,100.00
2018-06-25T04:35:30.722Z,100.00
2018-06-25T04:37:57.673Z,100.00
2018-06-25T04:40:24.601Z,100.00
2018-06-25T04:42:51.543Z,100.00
2018-06-25T04:45:18.481Z,100.00
2018-06-25T04:47:45.448Z,100.00
2018-06-25T04:50:12.387Z,100.00
2018-06-25T04:52:39.323Z,100.00
2018-06-25T04:55:06.282Z,100.00
2018-06-25T04:57:33.236Z,100.00
2018-06-25T05:00:00.477Z,100.00
2018-06-25T05:02:27.414Z,100.00
2018-06-25T05:04:54.357Z,100.00
2018-06-25T05:07:21.303Z,100.00
2018-06-25T05:09:48.243Z,100.00
2018-06-25T05:12:15.187Z,100.00
2018-06-25T05:14:42.126Z,100.00
2018-06-25T05:17:09.066Z,100.00
2018-06-25T05:19:36.014Z,100.00
2018-06-25T05:22:02.968Z,100.00
2018-06-25T05:24:29.893Z,100.00
2018-06-25T05:26:56.865Z,100.00
2018-06-25T05:29:23.805Z,100.00
2018-06-25T05:31:50.757Z,100.00
2018-06-25T05:34:17.717Z,100.00
2018-06-25T05:36:44.668Z,100.00
2018-06-25T05:39:12.021Z,100.00
2018-06-25T05:41:39.280Z,100.00
2018-06-25T05:44:06.343Z,100.00
2018-06-25T05:46:33.297Z,100.00
2018-06-25T05:49:00.230Z,100.00
2018-06-25T05:51:27.172Z,100.00
2018-06-25T05:53:54.093Z,100.00
2018-06-25T05:56:21.205Z,100.00
2018-06-25T05:58:48.117Z,100.00
2018-06-25T06:01:15.057Z,100.00
2018-06-25T06:03:41.997Z,100.00
2018-06-25T06:06:08.933Z,100.00
2018-06-25T06:08:35.859Z,100.00
2018-06-25T06:11:02.813Z,100.00
2018-06-25T06:13:29.737Z,100.00
2018-06-25T06:15:56.708Z,100.00
2018-06-25T06:18:23.646Z,100.00
2018-06-25T06:20:50.597Z,100.00
2018-06-25T06:23:17.527Z,99.90
2018-06-25T06:25:44.464Z,99.61
2018-06-25T06:28:11.397Z,99.66
2018-06-25T06:30:38.385Z,99.31
2018-06-25T06:33:05.458Z,99.43
2018-06-25T06:35:32.373Z,99.31
2018-06-25T06:37:59.331Z,99.07
2018-06-25T06:40:26.919Z,99.25
2018-06-25T06:42:53.885Z,99.30
2018-06-25T06:45:20.852Z,99.02
2018-06-25T06:47:47.752Z,98.84
2018-06-25T06:50:14.677Z,99.14
2018-06-25T06:52:41.617Z,98.67
2018-06-25T06:55:08.590Z,98.27
2018-06-25T06:57:35.612Z,98.72
2018-06-25T07:00:02.522Z,98.56
2018-06-25T07:02:29.461Z,98.84
2018-06-25T07:04:56.402Z,98.70
2018-06-25T07:07:23.373Z,98.44
2018-06-25T07:09:50.285Z,98.37
2018-06-25T07:12:17.209Z,98.16
2018-06-25T07:14:44.144Z,99.39
2018-06-25T07:17:11.062Z,99.99
2018-06-25T07:19:37.968Z,100.00
2018-06-25T07:22:04.888Z,99.85
2018-06-25T07:24:31.813Z,99.05
2018-06-25T07:26:58.770Z,98.05
2018-06-25T07:29:25.713Z,97.77
2018-06-25T07:31:52.646Z,97.07
2018-06-25T07:34:19.596Z,95.90
2018-06-25T07:36:46.553Z,94.89
2018-06-25T07:39:13.514Z,95.02
2018-06-25T07:41:40.464Z,94.85
2018-06-25T07:44:07.409Z,95.90
2018-06-25T07:46:34.366Z,96.45
2018-06-25T07:49:01.350Z,96.85
2018-06-25T07:51:28.304Z,95.47
2018-06-25T07:53:55.254Z,94.55
2018-06-25T07:56:22.205Z,94.32
2018-06-25T07:58:49.149Z,95.02
2018-06-25T08:01:16.075Z,96.00
2018-06-25T08:03:43.072Z,95.78
2018-06-25T08:06:09.953Z,95.73
2018-06-25T08:08:36.926Z,95.51
2018-06-25T08:11:03.872Z,94.14
2018-06-25T08:13:30.800Z,94.46
2018-06-25T08:15:57.725Z,93.97
2018-06-25T08:18:24.689Z,92.61
2018-06-25T08:20:51.611Z,92.34
2018-06-25T08:23:18.540Z,91.81
2018-06-25T08:25:45.474Z,90.94
2018-06-25T08:28:12.417Z,91.09
2018-06-25T08:30:39.351Z,91.14
2018-06-25T08:33:06.297Z,89.53
2018-06-25T08:35:33.262Z,88.98
2018-06-25T08:38:00.193Z,88.64
2018-06-25T08:40:27.117Z,88.63
2018-06-25T08:42:54.021Z,88.63
2018-06-25T08:45:20.951Z,87.75
2018-06-25T08:47:47.873Z,87.44
2018-06-25T08:50:14.781Z,87.31
2018-06-25T08:52:41.695Z,86.29
2018-06-25T08:55:08.637Z,87.19
2018-06-25T08:57:35.582Z,88.00
2018-06-25T09:00:02.525Z,88.13
2018-06-25T09:02:29.461Z,88.44
2018-06-25T09:04:56.377Z,88.13
2018-06-25T09:07:23.329Z,87.37
2018-06-25T09:09:50.300Z,86.74
2018-06-25T09:12:17.192Z,87.30
2018-06-25T09:14:44.141Z,86.33
2018-06-25T09:17:11.114Z,86.44
2018-06-25T09:19:38.054Z,86.58
2018-06-25T09:22:05.097Z,85.27
2018-06-25T09:24:31.999Z,84.15
2018-06-25T09:26:58.897Z,83.57
2018-06-25T09:29:25.849Z,84.02
2018-06-25T09:31:52.769Z,83.65
2018-06-25T09:34:25.421Z,83.55
2018-06-25T09:36:52.368Z,83.40
2018-06-25T09:39:19.309Z,82.40
2018-06-25T09:41:46.601Z,82.16
2018-06-25T09:44:13.186Z,82.73
2018-06-25T09:46:40.149Z,82.36
2018-06-25T09:49:07.082Z,82.22
2018-06-25T09:51:34.020Z,80.97
2018-06-25T09:54:01.008Z,81.67
2018-06-25T09:56:27.944Z,81.44
2018-06-25T09:58:54.905Z,82.35
2018-06-25T10:01:21.837Z,82.91
2018-06-25T10:03:48.801Z,82.86
2018-06-25T10:06:15.760Z,83.08
2018-06-25T10:08:42.698Z,83.52
2018-06-25T10:11:09.625Z,83.40
2018-06-25T10:13:36.590Z,82.17
2018-06-25T10:16:03.545Z,81.21
2018-06-25T10:18:30.496Z,80.53
2018-06-25T10:20:57.516Z,78.98
2018-06-25T10:23:24.722Z,78.90
2018-06-25T10:25:51.662Z,79.83
2018-06-25T10:28:18.598Z,78.53
2018-06-25T10:30:45.559Z,79.08
2018-06-25T10:33:12.480Z,79.83
2018-06-25T10:35:39.412Z,80.91
2018-06-25T10:38:06.371Z,79.50
2018-06-25T10:40:33.306Z,78.71
2018-06-25T10:43:00.233Z,77.28
2018-06-25T10:45:27.208Z,76.53
2018-06-25T10:47:54.137Z,73.89
2018-06-25T10:50:21.093Z,74.17
2018-06-25T10:52:48.028Z,73.41
2018-06-25T10:55:14.978Z,73.95
2018-06-25T10:57:41.937Z,73.37
2018-06-25T11:00:09.117Z,74.43
2018-06-25T11:02:35.860Z,74.30
2018-06-25T11:05:02.939Z,72.11
2018-06-25T11:07:29.925Z,71.94
2018-06-25T11:09:56.833Z,73.00
2018-06-25T11:12:23.804Z,72.98
2018-06-25T11:14:50.754Z,70.35
2018-06-25T11:17:17.705Z,69.34
2018-06-25T11:19:44.642Z,69.62
2018-06-25T11:22:11.565Z,70.30
2018-06-25T11:24:38.506Z,69.86
2018-06-25T11:27:05.607Z,68.75
2018-06-25T11:29:32.405Z,70.14
2018-06-25T11:31:59.329Z,69.30
2018-06-25T11:34:26.297Z,66.82
2018-06-25T11:36:53.225Z,66.45
2018-06-25T11:39:20.161Z,67.67
2018-06-25T11:41:47.088Z,68.66
2018-06-25T11:44:14.042Z,70.37
2018-06-25T11:46:41.006Z,71.21
2018-06-25T11:49:07.949Z,69.29
2018-06-25T11:51:34.917Z,70.79
2018-06-25T11:54:01.861Z,70.70
2018-06-25T11:56:28.826Z,70.47
2018-06-25T11:58:55.756Z,69.52
2018-06-25T12:01:22.693Z,66.46
2018-06-25T12:03:49.625Z,67.88
2018-06-25T12:06:16.569Z,68.03
2018-06-25T12:08:43.494Z,66.28
2018-06-25T12:11:10.434Z,68.01
2018-06-25T12:13:37.355Z,66.72
2018-06-25T12:16:04.517Z,67.84
2018-06-25T12:18:31.724Z,66.51
2018-06-25T12:20:58.682Z,64.97
2018-06-25T12:23:25.678Z,64.05
2018-06-25T12:25:52.637Z,64.49
2018-06-25T12:28:19.565Z,64.08
2018-06-25T12:30:46.525Z,62.93
2018-06-25T12:33:13.453Z,62.38
2018-06-25T12:35:40.385Z,63.34
2018-06-25T12:38:07.315Z,62.90
2018-06-25T12:40:34.265Z,64.24
2018-06-25T12:43:01.201Z,63.39
2018-06-25T12:45:28.139Z,64.49
2018-06-25T12:47:55.076Z,69.09
2018-06-25T12:50:22.057Z,68.23
2018-06-25T12:52:48.974Z,68.09
2018-06-25T12:55:15.937Z,70.81
2018-06-25T12:57:42.865Z,73.08
2018-06-25T13:00:09.818Z,72.06
2018-06-25T13:02:36.732Z,73.40
2018-06-25T13:05:04.245Z,74.17
2018-06-25T13:07:31.198Z,73.04
2018-06-25T13:09:58.161Z,73.24
2018-06-25T13:12:25.105Z,74.56
2018-06-25T13:14:52.042Z,75.09
2018-06-25T13:17:18.969Z,76.36
2018-06-25T13:19:45.899Z,78.66
2018-06-25T13:22:13.397Z,79.15
2018-06-25T13:24:40.338Z,78.48
2018-06-25T13:27:07.280Z,80.69
2018-06-25T13:29:34.210Z,80.24
2018-06-25T13:32:01.157Z,82.01
2018-06-25T13:34:28.074Z,81.18
2018-06-25T13:36:54.986Z,81.21
2018-06-25T13:39:21.915Z,79.58
2018-06-25T13:41:48.858Z,79.91
2018-06-25T13:44:15.780Z,81.08
2018-06-25T13:46:42.720Z,81.56
2018-06-25T13:49:09.634Z,82.54
2018-06-25T13:51:36.599Z,82.40
2018-06-25T13:54:03.564Z,83.86
2018-06-25T13:56:30.513Z,84.34
2018-06-25T13:58:57.434Z,84.15
2018-06-25T14:01:24.369Z,83.96
2018-06-25T14:03:51.279Z,83.84
2018-06-25T14:06:18.201Z,83.80
2018-06-25T14:08:45.130Z,83.87
2018-06-25T14:11:12.061Z,84.12
2018-06-25T14:13:38.968Z,85.32
2018-06-25T14:16:05.948Z,85.63
2018-06-25T14:18:32.868Z,85.62
2018-06-25T14:20:59.815Z,85.22
2018-06-25T14:23:26.757Z,87.12
2018-06-25T14:25:59.376Z,88.18
2018-06-25T14:28:30.361Z,86.97
2018-06-25T14:31:03.136Z,86.37
2018-06-25T14:33:35.867Z,86.13
2018-06-25T14:36:02.804Z,85.79
2018-06-25T14:38:29.709Z,86.45
2018-06-25T14:40:56.649Z,85.43
2018-06-25T14:43:23.565Z,85.66
2018-06-25T14:45:50.473Z,86.70
2018-06-25T14:48:17.407Z,89.16
2018-06-25T14:50:44.301Z,88.97
2018-06-25T14:53:11.237Z,88.05
2018-06-25T14:55:38.176Z,88.32
2018-06-25T14:58:05.146Z,88.03
2018-06-25T15:00:32.049Z,87.44
2018-06-25T15:02:58.966Z,87.92
2018-06-25T15:05:25.889Z,86.83
2018-06-25T15:07:52.793Z,87.14
2018-06-25T15:10:19.708Z,88.06
2018-06-25T15:12:46.675Z,86.89
2018-06-25T15:15:13.591Z,86.99
2018-06-25T15:17:40.514Z,87.35
2018-06-25T15:20:07.453Z,88.36
2018-06-25T15:22:34.341Z,88.61
2018-06-25T15:25:01.284Z,87.89
2018-06-25T15:27:28.221Z,89.71
2018-06-25T15:29:55.141Z,90.06
2018-06-25T15:32:24.649Z,90.58
2018-06-25T15:34:51.553Z,90.01
2018-06-25T15:37:18.488Z,89.67
2018-06-25T15:39:45.414Z,89.26
2018-06-25T15:42:12.333Z,90.42
2018-06-25T15:44:39.232Z,91.69
2018-06-25T15:47:06.133Z,92.44
2018-06-25T15:49:33.047Z,92.24
2018-06-25T15:51:59.961Z,92.40
2018-06-25T15:54:26.877Z,92.54
2018-06-25T15:56:53.792Z,92.67
2018-06-25T15:59:20.716Z,93.46
2018-06-25T16:01:47.609Z,93.76
2018-06-25T16:04:14.529Z,94.75
2018-06-25T16:06:41.544Z,93.62
2018-06-25T16:09:08.381Z,94.28
2018-06-25T16:11:35.333Z,94.45
2018-06-25T16:14:02.701Z,95.47
2018-06-25T16:16:29.647Z,96.64
2018-06-25T16:18:56.560Z,96.81
2018-06-25T16:21:23.524Z,96.40
2018-06-25T16:23:50.446Z,96.68
2018-06-25T16:26:17.379Z,96.44
2018-06-25T16:28:44.333Z,96.52
2018-06-25T16:31:11.220Z,96.29
2018-06-25T16:33:38.116Z,96.55
2018-06-25T16:36:05.049Z,96.65
2018-06-25T16:38:31.932Z,96.20
2018-06-25T16:40:58.865Z,94.90
2018-06-25T16:43:25.774Z,96.50
2018-06-25T16:45:52.701Z,96.77
2018-06-25T16:48:19.600Z,96.09
2018-06-25T16:50:46.523Z,95.91
2018-06-25T16:53:13.424Z,96.23
2018-06-25T16:55:40.341Z,97.74
2018-06-25T16:58:07.388Z,98.06
2018-06-25T17:00:34.345Z,97.77
2018-06-25T17:03:01.254Z,98.46
2018-06-25T17:05:28.237Z,98.41
2018-06-25T17:07:55.180Z,99.29
2018-06-25T17:10:22.113Z,99.26
2018-06-25T17:13:04.246Z,100.00
2018-06-25T17:15:31.876Z,100.00
2018-06-25T17:17:58.893Z,100.00
2018-06-25T17:20:25.816Z,100.00
2018-06-25T17:22:52.883Z,100.00
2018-06-25T17:25:20.574Z,100.00
2018-06-25T17:27:49.731Z,100.00
2018-06-25T17:30:19.298Z,100.00
2018-06-25T17:33:20.469Z,100.00
2018-06-25T17:35:53.500Z,100.00
2018-06-25T17:39:26.629Z,100.00
2018-06-25T17:45:12.148Z,100.00
2018-06-25T17:47:56.953Z,100.00
2018-06-25T17:50:28.496Z,100.00
2018-06-25T18:24:37.365Z,100.00
2018-06-25T18:27:14.234Z,100.00
2018-06-25T18:29:41.156Z,100.00
2018-06-25T18:32:08.089Z,100.00
2018-06-25T18:34:35.003Z,100.00
2018-06-25T18:37:03.973Z,100.00
2018-06-25T18:39:33.048Z,100.00
2018-06-25T18:42:06.597Z,100.00
2018-06-25T18:44:35.575Z,100.00
2018-06-25T18:47:04.829Z,100.00
2018-06-25T18:49:32.057Z,100.00
2018-06-25T18:51:59.030Z,100.00
2018-06-25T18:54:25.961Z,100.00
2018-06-25T18:56:52.869Z,100.00
2018-06-25T18:59:19.826Z,100.00
2018-06-25T19:01:46.757Z,100.00
2018-06-25T19:04:13.701Z,100.00
2018-06-25T19:06:40.625Z,100.00
2018-06-25T19:09:08.642Z,100.00
2018-06-25T19:11:35.561Z,100.00
2018-06-25T19:14:02.535Z,100.00
2018-06-25T19:16:29.463Z,100.00
2018-06-25T19:18:56.411Z,100.00
2018-06-25T19:21:23.644Z,100.00
2018-06-25T19:23:51.036Z,100.00
2018-06-25T19:26:17.957Z,100.00
2018-06-25T19:28:44.939Z,100.00
2018-06-25T19:31:11.861Z,100.00
2018-06-25T19:33:38.817Z,100.00
2018-06-25T19:36:05.777Z,100.00
2018-06-25T19:38:32.705Z,100.00
2018-06-25T19:40:59.634Z,100.00
2018-06-25T19:43:26.574Z,100.00
2018-06-25T19:45:53.496Z,100.00
2018-06-25T19:48:20.434Z,100.00
2018-06-25T19:50:47.336Z,100.00
2018-06-25T19:53:14.272Z,100.00
2018-06-25T19:55:41.194Z,100.00
2018-06-25T19:58:08.112Z,100.00
2018-06-25T20:00:35.032Z,100.00
2018-06-25T20:03:01.969Z,100.00
2018-06-25T20:05:28.903Z,100.00
2018-06-25T20:07:55.838Z,100.00
2018-06-25T20:10:22.765Z,100.00
2018-06-25T20:12:49.709Z,100.00
2018-06-25T20:15:16.657Z,100.00
2018-06-25T20:17:43.687Z,100.00
2018-06-25T20:20:10.637Z,100.00
2018-06-25T20:22:37.578Z,100.00
2018-06-25T20:25:05.908Z,100.00
2018-06-25T20:27:32.824Z,100.00
2018-06-25T20:29:59.753Z,100.00
2018-06-25T20:32:26.684Z,100.00
2018-06-25T20:34:53.615Z,100.00
2018-06-25T20:37:20.557Z,100.00
2018-06-25T20:39:48.283Z,100.00
2018-06-25T20:42:15.236Z,100.00
2018-06-25T20:44:42.210Z,100.00
2018-06-25T20:47:09.146Z,100.00
2018-06-25T20:49:36.081Z,100.00
2018-06-25T20:52:03.027Z,100.00
2018-06-25T20:54:29.949Z,100.00
2018-06-25T20:56:56.910Z,100.00
2018-06-25T20:59:23.816Z,100.00
2018-06-25T21:01:50.741Z,100.00
2018-06-25T21:04:17.669Z,100.00
2018-06-25T21:06:44.613Z,100.00
2018-06-25T21:09:12.110Z,100.00
2018-06-25T21:11:39.575Z,100.00
2018-06-25T21:14:06.497Z,100.00
2018-06-25T21:16:33.461Z,100.00
2018-06-25T21:19:00.433Z,100.00
2018-06-25T21:21:27.373Z,100.00
2018-06-25T21:23:54.347Z,100.00
2018-06-25T21:26:21.284Z,100.00
2018-06-25T21:28:48.227Z,100.00
2018-06-25T21:31:15.177Z,100.00
2018-06-25T21:33:42.093Z,100.00
2018-06-25T21:36:09.053Z,100.00
2018-06-25T21:38:35.947Z,100.00
2018-06-25T21:41:02.914Z,100.00
2018-06-25T21:43:29.840Z,100.00
2018-06-25T21:45:56.774Z,100.00
2018-06-25T21:48:23.696Z,100.00
2018-06-25T21:50:50.637Z,100.00
2018-06-25T21:53:17.598Z,100.00
2018-06-25T21:55:44.817Z,100.00
2018-06-25T21:58:11.768Z,100.00
2018-06-25T22:00:49.870Z,100.00
2018-06-25T22:03:16.930Z,100.00
2018-06-25T22:05:43.869Z,100.00
2018-06-25T22:08:11.228Z,100.00
2018-06-25T22:10:38.399Z,100.00
2018-06-25T22:13:05.535Z,100.00
2018-06-25T22:15:32.613Z,100.00
2018-06-25T22:18:00.084Z,100.00
2018-06-25T22:20:27.053Z,100.00
2018-06-25T22:22:54.162Z,100.00
2018-06-25T22:25:21.363Z,100.00
2018-06-25T22:27:48.323Z,100.00
2018-06-25T22:30:15.268Z,100.00
2018-06-25T22:32:42.268Z,100.00
2018-06-25T22:35:09.769Z,100.00
2018-06-25T22:37:36.873Z,100.00
2018-06-25T22:40:03.789Z,100.00
2018-06-25T22:42:30.929Z,100.00
2018-06-25T22:44:58.174Z,100.00
2018-06-25T22:47:25.110Z,100.00
2018-06-25T22:49:52.244Z,100.00
2018-06-25T22:52:19.219Z,100.00
2018-06-25T22:54:46.521Z,100.00
2018-06-25T22:57:13.605Z,100.00
2018-06-25T22:59:40.733Z,100.00
2018-06-25T23:02:08.041Z,100.00
2018-06-25T23:04:35.141Z,100.00
2018-06-25T23:07:02.270Z,100.00
2018-06-25T23:09:29.201Z,100.00
2018-06-25T23:11:56.155Z,100.00
2018-06-25T23:14:23.076Z,100.00
2018-06-25T23:16:50.017Z,100.00
2018-06-25T23:19:16.958Z,100.00
2018-06-25T23:21:43.885Z,100.00
2018-06-25T23:24:10.801Z,100.00
2018-06-25T23:26:37.721Z,100.00
2018-06-25T23:29:04.674Z,100.00
2018-06-25T23:31:31.674Z,100.00
2018-06-25T23:33:58.629Z,100.00
2018-06-25T23:36:25.574Z,100.00
2018-06-25T23:38:52.525Z,100.00
2018-06-25T23:41:19.440Z,100.00
2018-06-25T23:43:46.371Z,100.00
2018-06-25T23:46:13.324Z,100.00
2018-06-25T23:48:40.287Z,100.00
2018-06-25T23:51:07.206Z,100.00
2018-06-25T23:53:34.134Z,100.00
2018-06-25T23:56:01.074Z,100.00
2018-06-25T23:58:28.005Z,100.00
